Time;durP1;ratioP1;P1;durP2;ratioP2;P2;SDS_P1;SDS_P2;PMS_P1;PMS_P2;Temp;Humidity;BMP_temperature;BMP_pressure;BME280_temperature;BME280_humidity;BME280_pressure;Samples;Min_cycle;Max_cycle;Signal;HPM_P1;HPM_P2
2024/02/17 00:00:35;;;;;;;30.23;17.10;;;11.40;99.90;;;;;;816477;174;26413;-76
2024/02/17 00:03:02;;;;;;;21.63;15.90;;;11.40;99.90;;;;;;819472;175;26413;-76
2024/02/17 00:05:29;;;;;;;24.80;17.20;;;11.40;99.90;;;;;;817220;173;26406;-77
2024/02/17 00:07:56;;;;;;;22.57;15.37;;;11.40;99.90;;;;;;816602;174;26402;-77
2024/02/17 00:10:22;;;;;;;24.60;15.80;;;11.40;99.90;;;;;;812256;175;26421;-77
2024/02/17 00:12:48;;;;;;;23.67;16.17;;;11.40;99.90;;;;;;808962;175;26430;-77
2024/02/17 00:15:15;;;;;;;25.57;16.73;;;11.40;99.90;;;;;;815387;175;26439;-77
2024/02/17 00:17:42;;;;;;;25.23;15.60;;;11.40;99.90;;;;;;819797;175;26414;-77
2024/02/17 00:20:09;;;;;;;21.73;15.53;;;11.40;99.90;;;;;;813688;174;26416;-76
2024/02/17 00:22:35;;;;;;;50.47;29.20;;;11.40;99.90;;;;;;813855;174;26559;-77
2024/02/17 00:25:02;;;;;;;30.53;20.17;;;11.40;99.90;;;;;;806851;175;26962;-77
2024/02/17 00:27:29;;;;;;;31.97;19.97;;;11.40;99.90;;;;;;809801;174;26446;-74
2024/02/17 00:29:55;;;;;;;32.73;21.43;;;11.40;99.90;;;;;;814057;173;26405;-74
2024/02/17 00:32:22;;;;;;;31.33;19.67;;;11.40;99.90;;;;;;817839;173;26432;-73
2024/02/17 00:34:48;;;;;;;25.40;18.47;;;11.40;99.90;;;;;;812403;174;26440;-73
2024/02/17 00:37:15;;;;;;;31.37;19.70;;;11.40;99.90;;;;;;810667;172;26441;-73
2024/02/17 00:39:42;;;;;;;28.03;17.97;;;11.40;99.90;;;;;;809884;175;26431;-74
2024/02/17 00:42:08;;;;;;;25.30;18.63;;;11.40;99.90;;;;;;808572;175;26452;-74
2024/02/17 00:44:35;;;;;;;33.10;21.30;;;11.40;99.90;;;;;;809637;174;26425;-74
2024/02/17 00:47:02;;;;;;;41.10;25.30;;;11.40;99.90;;;;;;813337;174;26430;-72
2024/02/17 00:49:28;;;;;;;38.77;24.87;;;11.40;99.90;;;;;;810603;173;28086;-74
2024/02/17 00:51:55;;;;;;;42.27;27.80;;;11.40;99.90;;;;;;815259;174;26408;-73
2024/02/17 00:54:21;;;;;;;46.60;26.77;;;11.40;99.90;;;;;;813453;174;27024;-73
2024/02/17 00:56:48;;;;;;;33.00;19.60;;;11.50;99.90;;;;;;813570;174;26406;-73
2024/02/17 00:59:14;;;;;;;31.43;21.20;;;11.40;99.90;;;;;;813095;174;26966;-73
2024/02/17 01:01:41;;;;;;;31.00;21.33;;;11.40;99.90;;;;;;808448;174;26406;-73
2024/02/17 01:04:07;;;;;;;27.57;18.93;;;11.50;99.90;;;;;;809216;175;26431;-71
2024/02/17 01:06:34;;;;;;;31.67;21.50;;;11.40;99.90;;;;;;812649;174;26414;-72
2024/02/17 01:09:01;;;;;;;32.23;19.87;;;11.40;99.90;;;;;;815839;174;26435;-74
2024/02/17 01:11:27;;;;;;;37.40;23.87;;;11.40;99.90;;;;;;815674;174;27038;-73
2024/02/17 01:13:54;;;;;;;33.93;20.90;;;11.40;99.90;;;;;;813185;174;26583;-73
2024/02/17 01:16:21;;;;;;;66.30;37.73;;;11.30;99.90;;;;;;811145;174;26441;-73
2024/02/17 01:18:47;;;;;;;85.00;43.87;;;11.30;99.90;;;;;;812392;174;26425;-73
2024/02/17 01:21:14;;;;;;;90.43;47.83;;;11.40;99.90;;;;;;824486;173;26984;-73
2024/02/17 01:23:40;;;;;;;108.10;56.47;;;11.40;99.90;;;;;;807129;174;26425;-74
2024/02/17 01:26:07;;;;;;;50.10;30.20;;;11.40;99.90;;;;;;810240;174;26565;-73
2024/02/17 01:28:34;;;;;;;38.63;25.53;;;11.40;99.90;;;;;;813617;174;26417;-72
2024/02/17 01:31:00;;;;;;;35.17;21.83;;;11.40;99.90;;;;;;815702;174;26410;-73
2024/02/17 01:33:27;;;;;;;33.00;22.60;;;11.40;99.90;;;;;;808538;174;26587;-74
2024/02/17 01:35:54;;;;;;;39.33;25.03;;;11.40;99.90;;;;;;816771;173;27030;-73
2024/02/17 01:38:20;;;;;;;43.77;28.20;;;11.40;99.90;;;;;;807133;175;26454;-73
2024/02/17 01:40:47;;;;;;;33.83;22.17;;;11.40;99.90;;;;;;807877;175;26954;-73
2024/02/17 01:43:14;;;;;;;33.27;22.87;;;11.40;99.90;;;;;;807494;175;27063;-73
2024/02/17 01:45:40;;;;;;;30.33;19.67;;;11.40;99.90;;;;;;808778;174;26431;-73
2024/02/17 01:48:07;;;;;;;34.97;22.70;;;11.30;99.90;;;;;;807206;173;26440;-73
2024/02/17 01:50:34;;;;;;;42.90;26.13;;;11.30;99.90;;;;;;813101;174;27022;-74
2024/02/17 01:53:00;;;;;;;36.83;21.80;;;11.30;99.90;;;;;;809117;175;26415;-73
2024/02/17 01:55:27;;;;;;;34.50;22.93;;;11.30;99.90;;;;;;810266;174;27027;-74
2024/02/17 01:57:53;;;;;;;34.30;23.23;;;11.30;99.90;;;;;;815837;173;26454;-73
2024/02/17 02:00:21;;;;;;;35.73;22.03;;;11.30;99.90;;;;;;808980;173;26957;-73
2024/02/17 02:02:47;;;;;;;33.23;22.43;;;11.30;99.90;;;;;;809980;174;26409;-73
2024/02/17 02:05:13;;;;;;;32.27;20.17;;;11.30;99.90;;;;;;816538;174;26430;-74
2024/02/17 02:07:40;;;;;;;33.40;20.87;;;11.30;99.90;;;;;;812090;174;26422;-72
2024/02/17 02:10:07;;;;;;;31.23;20.67;;;11.20;99.90;;;;;;809204;174;26541;-73
2024/02/17 02:12:33;;;;;;;37.13;24.53;;;11.20;99.90;;;;;;817015;174;26425;-73
2024/02/17 02:15:03;;;;;;;36.70;20.77;;;11.20;99.90;;;;;;816071;174;26426;-74
2024/02/17 02:17:30;;;;;;;40.33;25.50;;;11.20;99.90;;;;;;811467;174;26413;-73
2024/02/17 02:19:57;;;;;;;34.80;21.57;;;11.10;99.90;;;;;;816004;175;26461;-73
2024/02/17 02:22:23;;;;;;;37.10;21.70;;;11.10;99.90;;;;;;807616;173;26443;-74
2024/02/17 02:24:50;;;;;;;38.20;23.77;;;11.10;99.90;;;;;;816216;173;26443;-73
2024/02/17 02:27:16;;;;;;;34.03;21.77;;;11.10;99.90;;;;;;800739;173;26455;-73
2024/02/17 02:29:45;;;;;;;32.27;22.30;;;11.10;99.90;;;;;;809390;175;26455;-73
2024/02/17 02:32:11;;;;;;;33.67;21.67;;;11.20;99.90;;;;;;808951;175;26437;-73
2024/02/17 02:34:38;;;;;;;35.47;22.73;;;11.20;99.90;;;;;;814544;174;28072;-73
2024/02/17 02:37:05;;;;;;;35.63;21.83;;;11.10;99.90;;;;;;813442;174;26433;-73
2024/02/17 02:39:31;;;;;;;34.80;22.40;;;11.10;99.90;;;;;;810208;174;26458;-73
2024/02/17 02:41:58;;;;;;;36.73;20.93;;;11.20;99.90;;;;;;813428;174;26431;-73
2024/02/17 02:44:24;;;;;;;34.57;20.33;;;11.20;99.90;;;;;;813339;175;26569;-73
2024/02/17 02:46:51;;;;;;;33.40;19.03;;;11.10;99.90;;;;;;810882;174;26401;-73
2024/02/17 02:49:17;;;;;;;31.07;21.90;;;11.10;99.90;;;;;;807100;175;26430;-73
2024/02/17 02:51:45;;;;;;;30.47;19.10;;;11.10;99.90;;;;;;807677;175;26987;-73
2024/02/17 02:54:11;;;;;;;30.10;19.30;;;11.00;99.90;;;;;;812037;174;26474;-72
2024/02/17 02:56:38;;;;;;;31.60;20.33;;;11.00;99.90;;;;;;806908;174;26433;-73
2024/02/17 02:59:05;;;;;;;30.13;19.63;;;11.00;99.90;;;;;;811116;174;26473;-73
2024/02/17 03:01:31;;;;;;;36.17;20.47;;;11.00;99.90;;;;;;810640;174;26425;-73
2024/02/17 03:03:58;;;;;;;30.03;19.03;;;11.00;99.90;;;;;;814909;173;26438;-73
2024/02/17 03:06:24;;;;;;;35.57;20.97;;;11.00;99.90;;;;;;819008;174;26966;-71
2024/02/17 03:08:51;;;;;;;31.80;20.27;;;11.00;99.90;;;;;;809925;173;27023;-73
2024/02/17 03:11:18;;;;;;;27.67;18.17;;;11.00;99.90;;;;;;810071;173;26473;-72
2024/02/17 03:13:44;;;;;;;33.53;21.03;;;11.00;99.90;;;;;;808527;172;26980;-72
2024/02/17 03:16:11;;;;;;;34.40;20.30;;;11.00;99.90;;;;;;807985;175;26459;-73
2024/02/17 03:18:37;;;;;;;34.27;20.50;;;11.00;99.90;;;;;;809745;175;27269;-71
2024/02/17 03:21:04;;;;;;;27.47;18.67;;;11.00;99.90;;;;;;814599;173;26404;-72
2024/02/17 03:23:31;;;;;;;33.00;19.20;;;11.00;99.90;;;;;;813291;174;26993;-73
2024/02/17 03:25:57;;;;;;;30.43;17.43;;;11.00;99.90;;;;;;812480;174;26553;-73
2024/02/17 03:28:24;;;;;;;32.13;19.07;;;11.00;99.90;;;;;;815534;174;26959;-73
2024/02/17 03:30:50;;;;;;;27.57;16.93;;;11.00;99.90;;;;;;819429;174;26411;-71
2024/02/17 03:33:17;;;;;;;32.03;18.60;;;11.00;99.90;;;;;;815308;173;26406;-72
2024/02/17 03:35:44;;;;;;;31.07;17.73;;;11.00;99.90;;;;;;809107;174;26462;-72
2024/02/17 03:38:10;;;;;;;33.27;17.63;;;11.00;99.90;;;;;;818461;174;26424;-73
2024/02/17 03:40:37;;;;;;;28.50;18.17;;;11.00;99.90;;;;;;812959;173;26763;-73
2024/02/17 03:43:03;;;;;;;28.67;17.13;;;11.00;99.90;;;;;;810314;174;26441;-72
2024/02/17 03:45:30;;;;;;;34.60;16.90;;;11.00;99.90;;;;;;813340;174;26437;-72
2024/02/17 03:47:57;;;;;;;26.67;16.07;;;11.00;99.90;;;;;;808093;174;26435;-73
2024/02/17 03:50:23;;;;;;;25.47;16.30;;;11.00;99.90;;;;;;810886;174;26426;-73
2024/02/17 03:52:50;;;;;;;25.47;15.47;;;11.00;99.90;;;;;;810149;175;26442;-73
2024/02/17 03:55:16;;;;;;;26.07;15.93;;;11.00;99.90;;;;;;812470;174;26459;-73
2024/02/17 03:57:43;;;;;;;27.60;15.03;;;10.90;99.90;;;;;;814178;174;26407;-73
2024/02/17 04:00:13;;;;;;;29.17;17.67;;;10.90;99.90;;;;;;818002;174;26548;-72
2024/02/17 04:02:37;;;;;;;24.87;15.03;;;10.90;99.90;;;;;;801676;173;26410;-73
2024/02/17 04:05:04;;;;;;;23.93;15.57;;;10.90;99.90;;;;;;809217;174;26997;-73
2024/02/17 04:07:30;;;;;;;25.33;14.37;;;10.90;99.90;;;;;;812920;175;26421;-72
2024/02/17 04:09:57;;;;;;;23.80;14.67;;;10.90;99.90;;;;;;812362;175;26444;-73
2024/02/17 04:12:24;;;;;;;27.67;15.20;;;10.90;99.90;;;;;;809405;174;26499;-73
2024/02/17 04:14:50;;;;;;;24.80;14.47;;;10.80;99.90;;;;;;811201;174;27014;-71
2024/02/17 04:17:17;;;;;;;25.40;14.67;;;10.80;99.90;;;;;;806461;175;26411;-72
2024/02/17 04:19:44;;;;;;;24.70;15.23;;;10.90;99.90;;;;;;809690;173;26453;-73
2024/02/17 04:22:10;;;;;;;25.70;15.87;;;10.80;99.90;;;;;;812864;174;26436;-73
2024/02/17 04:24:37;;;;;;;26.47;16.47;;;10.80;99.90;;;;;;806746;175;26607;-71
2024/02/17 04:27:03;;;;;;;26.67;14.93;;;10.80;99.90;;;;;;813376;174;26427;-74
2024/02/17 04:29:30;;;;;;;28.03;15.50;;;10.80;99.90;;;;;;812022;175;26414;-72
2024/02/17 04:31:57;;;;;;;20.63;15.07;;;10.90;99.90;;;;;;819964;175;26436;-73
2024/02/17 04:34:23;;;;;;;25.77;15.90;;;10.90;99.90;;;;;;812090;174;26413;-73
2024/02/17 04:36:50;;;;;;;26.87;15.70;;;10.90;99.90;;;;;;810603;174;26472;-74
2024/02/17 04:39:16;;;;;;;25.03;14.70;;;10.90;99.90;;;;;;802350;177;28997;-77
2024/02/17 04:41:43;;;;;;;24.10;14.87;;;10.90;99.90;;;;;;804836;178;26440;-75
2024/02/17 04:44:10;;;;;;;20.87;15.00;;;10.90;99.90;;;;;;798072;178;26429;-76
2024/02/17 04:46:36;;;;;;;29.10;14.63;;;11.00;99.90;;;;;;793544;178;26486;-76
2024/02/17 04:49:03;;;;;;;26.50;15.70;;;11.00;99.90;;;;;;790030;181;26458;-75
2024/02/17 04:51:29;;;;;;;21.27;14.43;;;10.90;99.90;;;;;;789666;180;26476;-77
2024/02/17 04:53:56;;;;;;;28.23;15.57;;;10.90;99.90;;;;;;785100;180;26451;-76
2024/02/17 04:56:23;;;;;;;24.63;15.07;;;10.90;99.90;;;;;;776095;181;26474;-77
2024/02/17 04:58:49;;;;;;;30.87;17.00;;;10.80;99.90;;;;;;788605;181;26509;-75
2024/02/17 05:01:16;;;;;;;25.90;16.17;;;10.90;99.90;;;;;;790338;181;26561;-77
2024/02/17 05:03:42;;;;;;;23.23;15.30;;;10.90;99.90;;;;;;787196;181;26478;-76
2024/02/17 05:06:12;;;;;;;26.47;15.67;;;10.80;99.90;;;;;;782755;181;26494;-76
2024/02/17 05:08:36;;;;;;;27.70;16.43;;;10.80;99.90;;;;;;782015;181;27060;-76
2024/02/17 05:11:02;;;;;;;28.67;17.27;;;10.90;99.90;;;;;;789809;181;26543;-78
2024/02/17 05:13:29;;;;;;;25.43;18.27;;;10.80;99.90;;;;;;781751;181;26476;-76
2024/02/17 05:15:55;;;;;;;29.40;16.80;;;10.80;99.90;;;;;;783711;181;26498;-75
2024/02/17 05:18:22;;;;;;;32.10;18.13;;;10.70;99.90;;;;;;781019;181;26455;-75
2024/02/17 05:20:49;;;;;;;32.33;19.43;;;10.80;99.90;;;;;;785332;181;27084;-75
2024/02/17 05:23:16;;;;;;;28.90;19.07;;;10.80;99.90;;;;;;789262;181;26521;-76
2024/02/17 05:25:42;;;;;;;37.93;19.13;;;10.80;99.90;;;;;;782872;181;28076;-76
2024/02/17 05:28:08;;;;;;;30.50;18.07;;;10.70;99.90;;;;;;779102;181;26442;-75
2024/02/17 05:30:35;;;;;;;30.57;18.33;;;10.70;99.90;;;;;;778064;181;26461;-75
2024/02/17 05:33:02;;;;;;;26.80;18.20;;;10.80;99.90;;;;;;786864;181;27066;-77
2024/02/17 05:35:28;;;;;;;27.77;19.70;;;10.80;99.90;;;;;;777258;181;26490;-75
2024/02/17 05:37:55;;;;;;;26.73;16.67;;;10.70;99.90;;;;;;787088;181;27078;-76
2024/02/17 05:40:21;;;;;;;31.70;18.40;;;10.70;99.90;;;;;;786123;180;26677;-75
2024/02/17 05:42:48;;;;;;;30.93;19.97;;;10.70;99.90;;;;;;790314;180;26995;-76
2024/02/17 05:45:15;;;;;;;27.83;18.13;;;10.70;99.90;;;;;;781233;180;26481;-78
2024/02/17 05:47:41;;;;;;;36.07;20.20;;;10.60;99.90;;;;;;783466;180;26462;-76
2024/02/17 05:50:08;;;;;;;33.53;18.13;;;10.60;99.90;;;;;;783869;181;26462;-77
2024/02/17 05:52:34;;;;;;;36.77;19.60;;;10.60;99.90;;;;;;776897;180;27002;-78
2024/02/17 05:55:01;;;;;;;30.77;19.20;;;10.60;99.90;;;;;;777563;181;26451;-80
2024/02/17 05:57:28;;;;;;;29.43;18.83;;;10.60;99.90;;;;;;789358;178;26489;-77
2024/02/17 05:59:56;;;;;;;32.23;20.27;;;10.60;99.90;;;;;;788925;181;26483;-78
2024/02/17 06:02:21;;;;;;;29.60;19.73;;;10.50;99.90;;;;;;785181;180;26481;-78
2024/02/17 06:04:47;;;;;;;29.97;19.97;;;10.60;99.90;;;;;;781499;181;27035;-78
2024/02/17 06:07:14;;;;;;;30.27;18.60;;;10.60;99.90;;;;;;776010;181;26466;-79
2024/02/17 06:09:41;;;;;;;31.83;20.23;;;10.60;99.90;;;;;;779739;181;26488;-79
2024/02/17 06:12:07;;;;;;;31.73;19.13;;;10.60;99.90;;;;;;788089;181;26498;-79
2024/02/17 06:14:34;;;;;;;28.20;19.23;;;10.60;99.90;;;;;;783811;181;26457;-79
2024/02/17 06:17:04;;;;;;;28.87;20.43;;;10.60;99.90;;;;;;781281;181;27047;-78
2024/02/17 06:22:01;;;;;;;36.20;20.73;;;10.60;99.90;;;;;;777958;181;26504;-80
2024/02/17 06:24:28;;;;;;;34.33;20.00;;;10.50;99.90;;;;;;786988;181;26476;-81
2024/02/17 06:26:54;;;;;;;29.73;19.30;;;10.50;99.90;;;;;;785462;178;26487;-82
2024/02/17 06:29:21;;;;;;;31.67;20.90;;;10.50;99.90;;;;;;791746;176;26513;-81
2024/02/17 06:31:47;;;;;;;29.23;20.50;;;10.50;99.90;;;;;;780494;179;26497;-80
2024/02/17 06:34:14;;;;;;;34.17;20.67;;;10.50;99.90;;;;;;793108;181;26454;-81
2024/02/17 06:36:42;;;;;;;28.60;19.80;;;10.50;99.90;;;;;;783797;179;26507;-82
2024/02/17 06:39:07;;;;;;;25.67;19.33;;;10.50;99.90;;;;;;790992;178;26536;-77
2024/02/17 06:41:34;;;;;;;31.77;19.50;;;10.50;99.90;;;;;;783676;179;27028;-79
2024/02/17 06:44:00;;;;;;;30.13;19.30;;;10.50;99.90;;;;;;786271;181;26475;-79
2024/02/17 06:46:27;;;;;;;36.17;20.93;;;10.60;99.90;;;;;;786535;180;26483;-78
2024/02/17 06:48:54;;;;;;;30.83;19.93;;;10.60;99.90;;;;;;789738;180;26514;-78
2024/02/17 06:51:20;;;;;;;34.47;19.03;;;10.60;99.90;;;;;;783634;180;26522;-77
2024/02/17 06:53:47;;;;;;;28.70;19.57;;;10.50;99.90;;;;;;788059;181;27142;-78
2024/02/17 06:56:13;;;;;;;29.57;19.23;;;10.50;99.90;;;;;;768670;182;27060;-79
2024/02/17 06:58:41;;;;;;;35.77;20.20;;;10.60;99.90;;;;;;785685;180;26521;-79
2024/02/17 07:01:07;;;;;;;34.37;18.73;;;10.50;99.90;;;;;;788339;180;27017;-79
2024/02/17 07:03:33;;;;;;;30.57;20.03;;;10.60;99.90;;;;;;783021;180;26496;-79
2024/02/17 07:06:00;;;;;;;27.03;19.10;;;10.60;99.90;;;;;;787075;181;26469;-78
2024/02/17 07:08:27;;;;;;;28.47;18.40;;;10.60;99.90;;;;;;778156;181;26495;-78
2024/02/17 07:10:53;;;;;;;33.80;18.77;;;10.60;99.90;;;;;;785409;180;26469;-78
2024/02/17 07:13:20;;;;;;;31.93;18.83;;;10.60;99.90;;;;;;788597;180;27004;-79
2024/02/17 07:15:46;;;;;;;29.20;19.13;;;10.60;99.90;;;;;;784638;180;26569;-79
2024/02/17 07:18:14;;;;;;;32.70;19.47;;;10.60;99.90;;;;;;787943;180;26463;-77
2024/02/17 07:20:41;;;;;;;32.77;18.37;;;10.60;99.90;;;;;;784321;181;26466;-77
2024/02/17 07:23:06;;;;;;;29.77;18.40;;;10.60;99.90;;;;;;780648;181;26453;-76
2024/02/17 07:25:35;;;;;;;34.33;18.43;;;10.60;99.90;;;;;;785812;181;26995;-79
2024/02/17 07:28:01;;;;;;;29.37;17.80;;;10.70;99.90;;;;;;787154;181;27061;-80
2024/02/17 07:30:27;;;;;;;28.20;18.87;;;10.70;99.90;;;;;;784559;181;26467;-78
2024/02/17 07:32:53;;;;;;;29.73;18.53;;;10.70;99.90;;;;;;778364;181;26475;-77
2024/02/17 07:35:19;;;;;;;32.43;19.77;;;10.70;99.90;;;;;;786198;181;26498;-80
2024/02/17 07:37:46;;;;;;;27.00;18.53;;;10.70;99.90;;;;;;786522;179;27025;-79
2024/02/17 07:40:12;;;;;;;27.40;17.50;;;10.70;99.90;;;;;;779521;181;26463;-79
2024/02/17 07:42:39;;;;;;;24.33;16.97;;;10.80;99.90;;;;;;782619;181;27030;-78
2024/02/17 07:45:06;;;;;;;31.53;17.47;;;10.80;99.90;;;;;;770917;182;26542;-78
2024/02/17 07:47:33;;;;;;;27.83;17.33;;;10.80;99.90;;;;;;778997;181;26487;-78
2024/02/17 07:49:59;;;;;;;28.77;18.90;;;10.80;99.90;;;;;;787476;181;26508;-78
2024/02/17 07:52:26;;;;;;;25.97;16.57;;;10.80;99.90;;;;;;788350;181;27004;-78
2024/02/17 07:54:53;;;;;;;24.47;16.43;;;10.80;99.90;;;;;;786633;180;26485;-78
2024/02/17 07:57:19;;;;;;;26.40;16.83;;;10.70;99.90;;;;;;790817;178;27030;-79
2024/02/17 07:59:46;;;;;;;26.97;16.57;;;10.70;99.90;;;;;;784787;180;26458;-78
2024/02/17 08:02:12;;;;;;;28.13;18.13;;;10.70;99.90;;;;;;785725;180;26474;-79
2024/02/17 08:04:40;;;;;;;28.80;17.57;;;10.80;99.90;;;;;;783971;181;26529;-80
2024/02/17 08:07:05;;;;;;;28.53;16.30;;;10.80;99.90;;;;;;784724;180;26466;-77
2024/02/17 08:09:32;;;;;;;23.83;16.40;;;10.90;99.90;;;;;;785789;180;27103;-78
2024/02/17 08:11:59;;;;;;;26.87;16.57;;;10.90;99.90;;;;;;787635;180;26535;-79
2024/02/17 08:14:25;;;;;;;32.13;17.17;;;10.90;99.90;;;;;;781904;181;26458;-80
2024/02/17 08:16:52;;;;;;;24.73;16.17;;;10.90;99.90;;;;;;790007;180;27046;-82
2024/02/17 08:19:18;;;;;;;26.33;14.97;;;11.00;99.90;;;;;;781988;180;26459;-79
2024/02/17 08:21:45;;;;;;;26.47;15.57;;;11.00;99.90;;;;;;787776;181;27032;-78
2024/02/17 08:24:12;;;;;;;28.27;17.67;;;11.00;99.90;;;;;;784431;180;27032;-77
2024/02/17 08:26:38;;;;;;;23.83;16.00;;;11.00;99.90;;;;;;783293;181;26492;-79
2024/02/17 08:29:05;;;;;;;28.90;15.50;;;11.00;99.90;;;;;;788672;180;27009;-79
2024/02/17 08:31:31;;;;;;;27.87;16.07;;;11.00;99.90;;;;;;780845;181;26489;-77
2024/02/17 08:33:58;;;;;;;26.93;16.07;;;11.00;99.90;;;;;;785713;181;26502;-79
2024/02/17 08:36:25;;;;;;;27.03;16.37;;;11.10;99.90;;;;;;777266;181;26483;-79
2024/02/17 08:38:51;;;;;;;26.43;14.67;;;11.10;99.90;;;;;;780604;181;26780;-77
2024/02/17 08:41:21;;;;;;;27.73;16.10;;;11.20;99.90;;;;;;785327;181;27033;-78
2024/02/17 08:43:44;;;;;;;28.37;14.73;;;11.20;99.90;;;;;;778993;181;26471;-77
2024/02/17 08:46:11;;;;;;;23.77;15.93;;;11.20;99.90;;;;;;781734;181;27086;-78
2024/02/17 08:48:38;;;;;;;29.87;15.93;;;11.30;99.90;;;;;;780082;181;26463;-80
2024/02/17 08:51:04;;;;;;;24.83;14.80;;;11.30;99.90;;;;;;779346;181;26461;-79
2024/02/17 08:53:31;;;;;;;21.13;14.13;;;11.30;99.90;;;;;;784901;181;26462;-78
2024/02/17 08:55:57;;;;;;;21.10;14.40;;;11.30;99.90;;;;;;785556;178;26449;-77
2024/02/17 08:58:24;;;;;;;23.47;15.27;;;11.30;99.90;;;;;;781045;182;26459;-78
2024/02/17 09:00:52;;;;;;;19.17;13.53;;;11.30;99.90;;;;;;789886;181;26493;-81
2024/02/17 09:03:17;;;;;;;23.97;14.10;;;11.50;99.90;;;;;;780557;181;26455;-78
2024/02/17 09:05:44;;;;;;;25.57;14.70;;;11.50;99.90;;;;;;780837;179;26462;-76
2024/02/17 09:08:10;;;;;;;23.37;14.40;;;11.40;99.90;;;;;;785127;181;26456;-79
2024/02/17 09:10:37;;;;;;;22.67;14.37;;;11.50;99.90;;;;;;791500;180;26470;-81
2024/02/17 09:13:04;;;;;;;25.27;15.67;;;11.70;99.90;;;;;;789033;180;26473;-80
2024/02/17 09:15:30;;;;;;;20.53;14.03;;;11.70;99.90;;;;;;784319;178;26467;-82
2024/02/17 09:17:57;;;;;;;27.97;16.13;;;11.80;99.90;;;;;;786574;178;26463;-80
2024/02/17 09:20:23;;;;;;;23.57;15.23;;;11.80;99.90;;;;;;784559;179;26463;-79
2024/02/17 09:22:50;;;;;;;22.13;14.67;;;11.70;99.90;;;;;;795075;176;26429;-81
2024/02/17 09:25:18;;;;;;;24.73;14.53;;;11.70;99.90;;;;;;791978;179;26466;-80
2024/02/17 09:27:44;;;;;;;24.00;14.37;;;11.80;99.90;;;;;;781513;179;26463;-79
2024/02/17 09:30:10;;;;;;;20.73;13.70;;;11.80;99.90;;;;;;783039;180;26463;-78
2024/02/17 09:32:37;;;;;;;22.57;14.03;;;11.80;99.90;;;;;;788202;180;28099;-80
2024/02/17 09:35:03;;;;;;;26.67;14.47;;;11.70;99.90;;;;;;776251;182;26455;-77
2024/02/17 09:37:30;;;;;;;23.20;13.40;;;11.70;99.90;;;;;;785142;178;26512;-78
2024/02/17 09:39:57;;;;;;;26.63;13.87;;;11.60;99.90;;;;;;785737;181;27001;-78
2024/02/17 09:42:23;;;;;;;27.97;14.30;;;11.50;99.90;;;;;;779742;181;26454;-78
2024/02/17 09:44:50;;;;;;;26.70;14.27;;;11.50;99.90;;;;;;783180;180;26483;-77
2024/02/17 09:47:17;;;;;;;23.40;13.80;;;11.50;99.90;;;;;;784672;178;27063;-78
2024/02/17 09:49:43;;;;;;;24.00;13.47;;;11.50;99.90;;;;;;784479;181;26478;-78
2024/02/17 09:52:10;;;;;;;21.53;14.10;;;11.50;99.90;;;;;;785872;181;26730;-80
2024/02/17 09:54:36;;;;;;;25.27;14.73;;;11.40;99.90;;;;;;782991;181;26454;-78
2024/02/17 09:57:03;;;;;;;27.60;14.83;;;11.40;99.90;;;;;;784500;178;26494;-79
2024/02/17 09:59:30;;;;;;;24.20;14.07;;;11.40;99.90;;;;;;786060;181;26530;-77
2024/02/17 10:01:57;;;;;;;22.23;13.97;;;11.40;99.90;;;;;;782020;181;26476;-79
2024/02/17 10:04:23;;;;;;;28.37;15.30;;;11.40;99.90;;;;;;783341;181;27000;-79
2024/02/17 10:06:58;;;;;;;28.07;14.97;;;11.40;99.90;;;;;;782580;181;26477;-80
2024/02/17 10:09:26;;;;;;;27.97;14.50;;;11.40;99.90;;;;;;790791;181;26486;-78
2024/02/17 10:11:51;;;;;;;28.67;13.70;;;11.40;99.90;;;;;;785279;181;27002;-78
2024/02/17 10:14:17;;;;;;;25.57;13.60;;;11.50;99.90;;;;;;779225;181;26450;-79
2024/02/17 10:16:44;;;;;;;21.63;14.50;;;11.40;99.90;;;;;;780259;181;26641;-79
2024/02/17 10:19:10;;;;;;;27.43;14.60;;;11.60;99.90;;;;;;791361;181;26479;-78
2024/02/17 10:21:39;;;;;;;26.93;14.50;;;11.60;99.90;;;;;;785793;181;26481;-77
2024/02/17 10:24:06;;;;;;;22.03;14.23;;;11.60;99.90;;;;;;789646;180;26448;-77
2024/02/17 10:26:32;;;;;;;26.10;15.33;;;11.70;99.90;;;;;;793484;177;26568;-80
2024/02/17 10:28:59;;;;;;;30.27;15.80;;;11.70;99.90;;;;;;786150;180;27250;-79
2024/02/17 10:31:26;;;;;;;29.97;17.77;;;11.80;99.90;;;;;;783507;180;26535;-77
2024/02/17 10:33:52;;;;;;;30.20;17.13;;;11.70;99.90;;;;;;783474;180;26539;-80
2024/02/17 10:36:19;;;;;;;26.97;17.20;;;11.80;99.90;;;;;;782972;180;26595;-81
2024/02/17 10:38:45;;;;;;;27.53;15.63;;;11.80;99.90;;;;;;783332;180;26482;-78
2024/02/17 10:41:12;;;;;;;38.90;24.73;;;11.80;99.90;;;;;;769797;180;26601;-77
2024/02/17 10:43:43;;;;;;;39.40;19.67;;;11.80;99.90;;;;;;783006;180;26469;-78
2024/02/17 10:46:06;;;;;;;28.43;18.10;;;11.80;99.90;;;;;;782964;178;26523;-77
2024/02/17 10:48:32;;;;;;;32.40;18.73;;;11.80;99.90;;;;;;782097;180;26508;-78
2024/02/17 10:50:59;;;;;;;29.97;17.27;;;11.80;99.90;;;;;;782798;180;27105;-78
2024/02/17 10:53:28;;;;;;;31.67;19.40;;;11.90;99.90;;;;;;782875;180;26478;-80
2024/02/17 10:55:55;;;;;;;28.57;17.80;;;12.10;99.90;;;;;;782373;178;26985;-77
2024/02/17 10:58:22;;;;;;;32.07;20.60;;;12.10;99.90;;;;;;782713;181;26493;-79
2024/02/17 11:00:48;;;;;;;47.57;26.83;;;12.20;99.90;;;;;;782954;181;26575;-77
2024/02/17 11:03:18;;;;;;;64.20;34.77;;;12.30;99.90;;;;;;782476;181;26472;-78
2024/02/17 11:05:44;;;;;;;36.77;20.83;;;12.20;99.90;;;;;;782883;181;26504;-77
2024/02/17 11:08:11;;;;;;;30.33;17.10;;;12.20;99.90;;;;;;782587;181;26578;-77
2024/02/17 11:10:41;;;;;;;34.80;19.93;;;12.30;99.90;;;;;;782974;181;26529;-78
2024/02/17 11:13:04;;;;;;;33.27;18.43;;;12.20;99.90;;;;;;783656;181;27415;-79
2024/02/17 11:15:31;;;;;;;48.27;27.87;;;12.10;99.90;;;;;;780766;181;26502;-79
2024/02/17 11:17:58;;;;;;;48.47;29.13;;;12.10;99.90;;;;;;783158;181;26519;-76
2024/02/17 11:20:25;;;;;;;36.60;22.43;;;12.10;99.90;;;;;;782858;181;26517;-79
2024/02/17 11:22:53;;;;;;;27.20;17.70;;;12.20;99.90;;;;;;783128;181;26514;-78
2024/02/17 11:25:26;;;;;;;33.63;17.17;;;12.20;99.90;;;;;;783434;181;27375;-78
2024/02/17 11:27:53;;;;;;;24.27;16.40;;;12.30;99.90;;;;;;783277;178;26505;-79
2024/02/17 11:30:19;;;;;;;27.20;16.60;;;12.30;99.90;;;;;;784402;180;26564;-77
2024/02/17 11:32:46;;;;;;;33.17;17.93;;;12.30;99.90;;;;;;785305;180;26746;-78
2024/02/17 11:35:14;;;;;;;24.67;16.37;;;12.30;99.90;;;;;;782844;180;26518;-79
2024/02/17 11:37:39;;;;;;;24.23;17.17;;;12.30;99.90;;;;;;786000;178;26536;-80
2024/02/17 11:40:07;;;;;;;26.77;16.60;;;12.30;99.90;;;;;;786136;180;26868;-81
2024/02/17 11:42:34;;;;;;;26.60;15.73;;;12.30;99.90;;;;;;785572;180;26474;-79
2024/02/17 11:45:00;;;;;;;21.80;13.57;;;12.40;99.90;;;;;;785726;180;26807;-79
2024/02/17 11:47:29;;;;;;;32.47;18.77;;;12.40;99.90;;;;;;785634;178;26484;-78
2024/02/17 11:49:55;;;;;;;38.00;23.87;;;12.30;99.90;;;;;;785410;180;26472;-79
2024/02/17 11:52:21;;;;;;;35.77;23.50;;;12.40;99.90;;;;;;783167;180;26527;-78
2024/02/17 11:54:51;;;;;;;39.47;25.43;;;12.40;99.90;;;;;;783362;180;26464;-80
2024/02/17 11:57:16;;;;;;;28.00;15.43;;;12.40;99.90;;;;;;783213;180;26516;-78
2024/02/17 11:59:43;;;;;;;24.10;15.57;;;12.20;99.90;;;;;;783504;180;26472;-81
2024/02/17 12:02:10;;;;;;;25.33;16.70;;;12.30;99.90;;;;;;783762;179;27056;-78
2024/02/17 12:04:35;;;;;;;22.30;15.50;;;12.50;99.90;;;;;;783783;180;26466;-80
2024/02/17 12:07:03;;;;;;;28.33;14.90;;;12.50;99.90;;;;;;782466;179;26488;-77
2024/02/17 12:09:29;;;;;;;25.50;13.97;;;12.50;99.90;;;;;;783484;181;27123;-78
2024/02/17 12:11:55;;;;;;;20.73;13.77;;;12.40;99.90;;;;;;783104;181;26469;-80
2024/02/17 12:14:23;;;;;;;22.47;14.33;;;12.40;99.90;;;;;;783065;181;26499;-79
2024/02/17 12:16:49;;;;;;;27.50;14.70;;;12.50;99.90;;;;;;782918;178;26480;-78
2024/02/17 12:19:16;;;;;;;24.23;15.07;;;12.60;99.90;;;;;;783073;181;27104;-76
2024/02/17 12:21:42;;;;;;;26.67;13.73;;;12.70;99.90;;;;;;783093;181;26489;-78
2024/02/17 12:24:09;;;;;;;22.60;13.93;;;12.80;99.90;;;;;;783048;180;26469;-78